Time;durP1;ratioP1;P1;durP2;ratioP2;P2;SDS_P1;SDS_P2;PMS_P1;PMS_P2;Temp;Humidity;BMP_temperature;BMP_pressure;BME280_temperature;BME280_humidity;BME280_pressure;Samples;Min_cycle;Max_cycle;Signal;HPM_P1;HPM_P2
2023/12/10 00:01:15;;;;;;;13.68;2.40;;;9.90;99.90;;;9.81;100.00;99541.41;5249128;28;20454;-47
2023/12/10 00:03:47;;;;;;;12.82;2.50;;;9.90;99.90;;;9.81;100.00;99550.94;5250240;28;20109;-48
2023/12/10 00:06:20;;;;;;;11.70;2.00;;;9.90;99.90;;;9.81;100.00;99551.81;5236102;28;20136;-47
2023/12/10 00:08:52;;;;;;;11.48;1.70;;;9.90;99.90;;;9.80;100.00;99550.06;5261674;28;20075;-47
2023/12/10 00:11:26;;;;;;;14.00;2.30;;;9.90;99.90;;;9.81;100.00;99557.00;5248323;28;20154;-48
2023/12/10 00:14:01;;;;;;;12.55;1.65;;;9.90;99.90;;;9.82;100.00;99553.56;5255587;28;20032;-49
2023/12/10 00:16:33;;;;;;;11.90;2.22;;;9.90;99.90;;;9.82;100.00;99558.75;5266153;28;20093;-49
2023/12/10 00:19:09;;;;;;;10.73;2.05;;;9.90;99.90;;;9.83;100.00;99555.31;5260134;28;20453;-48
2023/12/10 00:21:41;;;;;;;9.82;1.90;;;9.90;99.90;;;9.83;100.00;99549.22;5252184;28;20040;-48
2023/12/10 00:24:14;;;;;;;7.65;1.75;;;9.90;99.90;;;9.82;100.00;99545.75;5255635;28;20097;-48
2023/12/10 00:26:48;;;;;;;10.27;1.90;;;9.90;99.90;;;9.81;100.00;99546.59;5256846;28;20076;-48
2023/12/10 00:29:24;;;;;;;16.42;1.98;;;9.90;99.90;;;9.82;100.00;99550.97;5254362;28;20110;-48
2023/12/10 00:31:57;;;;;;;10.60;2.25;;;9.90;99.90;;;9.83;100.00;99555.31;5236073;28;20064;-48
2023/12/10 00:34:30;;;;;;;13.75;2.33;;;9.90;99.90;;;9.86;100.00;99564.91;5242625;28;20037;-47
2023/12/10 00:37:03;;;;;;;13.02;2.20;;;9.90;99.90;;;9.85;100.00;99564.03;5229427;28;20139;-48
2023/12/10 00:39:37;;;;;;;11.43;1.65;;;9.90;99.90;;;9.85;100.00;99569.25;5243851;28;20070;-48
2023/12/10 00:42:11;;;;;;;10.60;1.80;;;9.90;99.90;;;9.88;100.00;99574.50;5244514;28;20066;-49
2023/12/10 00:44:44;;;;;;;14.93;2.25;;;9.90;99.90;;;9.90;100.00;99587.53;5227861;28;20076;-50
2023/12/10 00:47:16;;;;;;;21.15;2.55;;;9.90;99.90;;;9.89;100.00;99577.97;5231570;28;20085;-49
2023/12/10 00:49:49;;;;;;;11.60;2.55;;;9.90;99.90;;;9.91;100.00;99589.28;5225592;28;20475;-49
2023/12/10 00:52:21;;;;;;;11.63;2.10;;;10.00;99.90;;;9.91;100.00;99587.56;5244240;28;20499;-48
2023/12/10 00:54:54;;;;;;;10.32;2.53;;;10.00;99.90;;;9.94;100.00;99595.44;5232034;28;20050;-48
2023/12/10 00:57:28;;;;;;;10.95;2.28;;;10.00;99.90;;;9.96;100.00;99585.91;5232424;28;20490;-48
2023/12/10 01:00:00;;;;;;;13.38;2.78;;;10.00;99.90;;;9.99;100.00;99598.13;5229316;28;20054;-48
2023/12/10 01:02:33;;;;;;;9.10;1.70;;;10.10;99.90;;;9.98;100.00;99589.44;5225970;28;20582;-49
2023/12/10 01:05:09;;;;;;;11.65;2.67;;;10.10;99.90;;;9.98;100.00;99594.66;5240465;28;20526;-50
2023/12/10 01:07:41;;;;;;;15.27;2.72;;;10.10;99.90;;;9.97;100.00;99603.28;5225644;28;20559;-48
2023/12/10 01:10:14;;;;;;;11.38;2.30;;;10.00;99.90;;;9.96;100.00;99613.66;5243513;28;20143;-48
2023/12/10 01:12:48;;;;;;;11.70;2.10;;;10.10;99.90;;;9.94;100.00;99605.84;5232661;28;20140;-49
2023/12/10 01:15:29;;;;;;;10.52;1.80;;;10.00;99.90;;;9.95;100.00;99611.91;5239213;28;20048;-49
2023/12/10 01:18:02;;;;;;;11.18;2.17;;;10.00;99.90;;;9.97;100.00;99605.88;5225741;28;20411;-50
2023/12/10 01:20:37;;;;;;;10.43;2.35;;;10.00;99.90;;;9.95;100.00;99610.19;5245218;28;20140;-48
2023/12/10 01:23:09;;;;;;;13.88;2.13;;;10.00;99.90;;;9.96;100.00;99618.88;5246983;28;20047;-50
2023/12/10 01:25:42;;;;;;;15.07;2.38;;;10.00;99.90;;;9.97;100.00;99616.28;5246156;28;20055;-49
2023/12/10 01:28:16;;;;;;;13.32;2.50;;;10.00;99.90;;;9.98;100.00;99623.28;5246021;28;20052;-49
2023/12/10 01:30:48;;;;;;;18.33;2.70;;;10.10;99.90;;;9.97;100.00;99612.81;5243399;28;20125;-49
2023/12/10 01:33:24;;;;;;;12.40;2.22;;;10.00;99.90;;;9.96;100.00;99631.91;5252974;28;20040;-49
2023/12/10 01:35:56;;;;;;;13.80;3.08;;;10.00;99.90;;;9.97;100.00;99637.13;5234104;28;20399;-49
2023/12/10 01:38:29;;;;;;;13.57;2.33;;;10.00;99.90;;;9.98;100.00;99638.91;5235066;28;20063;-49
2023/12/10 01:41:02;;;;;;;9.70;2.72;;;10.10;99.90;;;10.01;100.00;99648.47;5227654;28;20053;-47
2023/12/10 01:43:35;;;;;;;12.65;2.28;;;10.10;99.90;;;10.01;100.00;99653.69;5245829;28;20511;-49
2023/12/10 01:46:08;;;;;;;13.38;2.28;;;10.10;99.90;;;9.99;100.00;99661.47;5246287;28;20060;-49
2023/12/10 01:48:42;;;;;;;14.98;2.50;;;10.10;99.90;;;10.02;100.00;99658.91;5244334;28;20072;-48
2023/12/10 01:51:14;;;;;;;9.38;2.03;;;10.10;99.90;;;10.01;100.00;99649.34;5236242;28;20595;-48
2023/12/10 01:53:47;;;;;;;13.60;2.00;;;10.00;99.90;;;10.02;100.00;99673.66;5247438;28;20044;-48
2023/12/10 01:56:22;;;;;;;9.48;2.42;;;10.10;99.90;;;10.03;100.00;99672.81;5249057;28;20055;-48
2023/12/10 01:58:56;;;;;;;12.10;1.85;;;10.10;99.90;;;10.02;100.00;99665.84;5247573;28;20782;-48
2023/12/10 02:01:28;;;;;;;12.90;3.08;;;10.10;99.90;;;10.00;100.00;99663.22;5228448;28;20053;-48
2023/12/10 02:04:02;;;;;;;10.77;1.83;;;10.10;99.90;;;10.02;100.00;99668.47;5226863;28;20079;-49
2023/12/10 02:06:37;;;;;;;12.35;1.92;;;10.10;99.90;;;10.00;100.00;99671.03;5246433;28;20048;-49
2023/12/10 02:09:12;;;;;;;7.72;1.90;;;10.10;99.90;;;10.00;100.00;99668.44;5246108;28;20042;-49
2023/12/10 02:11:45;;;;;;;11.57;1.52;;;10.10;99.90;;;10.03;100.00;99686.69;5228404;28;20140;-48
2023/12/10 02:14:19;;;;;;;12.50;2.78;;;10.10;99.90;;;10.02;100.00;99687.56;5230372;28;20048;-49
2023/12/10 02:16:51;;;;;;;9.63;1.98;;;10.10;99.90;;;10.04;100.00;99695.38;5229797;28;20099;-48
2023/12/10 02:19:27;;;;;;;11.65;2.28;;;10.10;99.90;;;10.06;100.00;99697.19;5231698;28;20453;-48
2023/12/10 02:22:00;;;;;;;6.95;2.10;;;10.10;99.90;;;10.05;100.00;99704.97;5249162;28;20061;-49
2023/12/10 02:24:40;;;;;;;7.00;1.33;;;10.10;99.90;;;10.03;100.00;99702.31;5245919;28;20037;-48
2023/12/10 02:27:15;;;;;;;9.00;1.50;;;10.10;99.90;;;10.04;100.00;99698.91;5229131;28;20056;-48
2023/12/10 02:29:49;;;;;;;10.18;1.75;;;10.10;99.90;;;10.04;100.00;99696.28;5244228;28;20044;-50
2023/12/10 02:32:21;;;;;;;10.68;1.65;;;10.10;99.90;;;10.04;100.00;99706.72;5245511;28;20112;-49
2023/12/10 02:34:54;;;;;;;12.25;2.10;;;10.10;99.90;;;10.06;100.00;99712.81;5243003;28;20438;-49
2023/12/10 02:37:30;;;;;;;10.20;1.80;;;10.10;99.90;;;10.06;100.00;99709.34;5226596;28;20054;-48
2023/12/10 02:40:03;;;;;;;13.02;2.15;;;10.10;99.90;;;10.12;100.00;99703.38;5227586;28;20058;-49
2023/12/10 02:42:37;;;;;;;9.80;1.50;;;10.10;99.90;;;10.06;100.00;99694.59;5243237;28;20455;-49
2023/12/10 02:45:11;;;;;;;10.85;2.05;;;10.10;99.90;;;10.05;100.00;99708.47;5245349;28;20060;-48
2023/12/10 02:47:43;;;;;;;8.45;1.42;;;10.10;99.90;;;10.05;100.00;99713.66;5228992;28;20620;-48
2023/12/10 02:50:16;;;;;;;11.63;2.10;;;10.10;99.90;;;10.06;100.00;99709.34;5244090;28;20140;-49
2023/12/10 02:52:49;;;;;;;13.95;2.17;;;10.10;99.90;;;10.03;100.00;99715.34;5228082;28;20044;-48
2023/12/10 02:55:25;;;;;;;9.88;1.70;;;10.10;99.90;;;10.04;100.00;99717.13;5228141;28;20138;-49
2023/12/10 02:57:59;;;;;;;8.93;2.03;;;10.10;99.90;;;10.05;100.00;99724.09;5229142;28;20440;-48
2023/12/10 03:00:31;;;;;;;7.07;1.33;;;10.10;99.90;;;10.01;100.00;99719.66;5230331;28;20063;-48
2023/12/10 03:03:04;;;;;;;7.20;1.85;;;10.10;99.90;;;10.02;100.00;99724.00;5229426;28;20415;-48
2023/12/10 03:05:37;;;;;;;9.30;1.50;;;10.10;99.90;;;9.98;100.00;99727.41;5244406;28;20131;-49
2023/12/10 03:08:09;;;;;;;11.57;2.17;;;10.10;99.90;;;10.00;100.00;99730.91;5226645;28;20051;-49
2023/12/10 03:10:42;;;;;;;10.20;1.95;;;10.10;99.90;;;9.98;100.00;99727.41;5227939;28;20503;-49
2023/12/10 03:13:19;;;;;;;11.70;1.73;;;10.00;99.90;;;9.98;100.00;99743.03;5224882;28;20598;-48
2023/12/10 03:15:52;;;;;;;9.45;1.90;;;10.00;99.90;;;9.99;100.00;99749.13;5229047;28;20072;-49
2023/12/10 03:18:25;;;;;;;8.20;1.67;;;10.00;99.90;;;9.97;100.00;99746.47;5227636;28;20142;-48
2023/12/10 03:20:57;;;;;;;10.18;2.13;;;10.00;99.90;;;9.97;100.00;99751.66;5230208;28;20121;-48
2023/12/10 03:23:33;;;;;;;7.38;1.75;;;10.00;99.90;;;9.95;100.00;99753.38;5242943;28;20070;-49
2023/12/10 03:26:06;;;;;;;9.32;1.35;;;10.00;99.90;;;9.97;100.00;99756.88;5227444;28;20044;-49
2023/12/10 03:28:40;;;;;;;8.85;1.63;;;10.00;99.90;;;9.97;100.00;99761.19;5244842;28;20151;-49
2023/12/10 03:31:12;;;;;;;10.20;1.73;;;10.00;99.90;;;9.95;100.00;99773.31;5227854;28;20046;-49
2023/12/10 03:33:45;;;;;;;11.02;1.65;;;10.00;99.90;;;9.92;100.00;99773.28;5220903;28;147697;-48
2023/12/10 03:36:19;;;;;;;12.77;2.13;;;10.00;99.90;;;9.89;100.00;99763.66;5239801;28;20567;-48
2023/12/10 03:38:51;;;;;;;7.38;1.95;;;10.00;99.90;;;9.88;100.00;99767.09;5239635;28;20051;-48
2023/12/10 03:41:24;;;;;;;8.88;1.45;;;10.00;99.90;;;9.82;100.00;99761.75;5239044;28;20139;-49
2023/12/10 03:43:58;;;;;;;7.57;1.75;;;9.90;99.90;;;9.78;100.00;99768.66;5245576;28;20139;-49
2023/12/10 03:46:30;;;;;;;15.02;2.53;;;9.90;99.90;;;9.76;100.00;99766.84;5235894;28;20052;-47
2023/12/10 03:49:03;;;;;;;11.85;2.78;;;9.80;99.90;;;9.75;100.00;99775.50;5244699;28;20052;-48
2023/12/10 03:51:35;;;;;;;7.40;1.20;;;9.80;99.90;;;9.72;100.00;99765.91;5244786;28;20139;-48
2023/12/10 03:54:08;;;;;;;10.05;2.05;;;9.80;99.90;;;9.70;100.00;99777.09;5244759;28;20814;-49
2023/12/10 03:56:40;;;;;;;9.27;1.50;;;9.80;99.90;;;9.72;100.00;99773.72;5252315;28;20472;-48
2023/12/10 03:59:14;;;;;;;15.90;2.00;;;9.80;99.90;;;9.72;100.00;99781.53;5241683;28;20239;-49
2023/12/10 04:01:47;;;;;;;11.45;2.30;;;9.80;99.90;;;9.76;100.00;99787.66;5255783;28;20047;-48
2023/12/10 04:04:19;;;;;;;12.90;1.65;;;9.80;99.90;;;9.75;100.00;99785.91;5242927;28;20051;-49
2023/12/10 04:06:55;;;;;;;11.23;1.70;;;9.80;99.90;;;9.75;100.00;99785.91;5242130;28;20471;-48
2023/12/10 04:09:27;;;;;;;9.60;1.75;;;9.80;99.90;;;9.74;100.00;99797.16;5244119;28;20051;-47
2023/12/10 04:12:00;;;;;;;9.57;2.20;;;9.80;99.90;;;9.74;100.00;99810.19;5244909;28;20543;-49
2023/12/10 04:14:34;;;;;;;12.60;2.55;;;9.80;99.90;;;9.75;100.00;99811.94;5238633;28;20075;-49
2023/12/10 04:17:07;;;;;;;11.57;2.10;;;9.80;99.90;;;9.71;100.00;99810.97;5244119;28;20072;-49
2023/12/10 04:19:43;;;;;;;9.02;2.05;;;9.80;99.90;;;9.70;100.00;99809.22;5244328;28;20040;-48
2023/12/10 04:22:15;;;;;;;6.93;1.60;;;9.80;99.90;;;9.68;100.00;99815.25;5254938;28;20036;-49
2023/12/10 04:24:48;;;;;;;10.90;2.90;;;9.80;99.90;;;9.67;100.00;99813.50;5243186;28;20058;-49
2023/12/10 04:27:23;;;;;;;10.57;1.90;;;9.80;99.90;;;9.64;100.00;99813.41;5243496;28;20064;-49
2023/12/10 04:29:56;;;;;;;12.55;2.08;;;9.70;99.90;;;9.68;100.00;99805.72;5243777;28;20582;-49
2023/12/10 04:32:31;;;;;;;10.88;1.83;;;9.80;99.90;;;9.65;100.00;99816.06;5243079;28;20516;-48
2023/12/10 04:35:03;;;;;;;15.98;2.20;;;9.70;99.90;;;9.63;100.00;99822.06;5244037;28;20659;-49
2023/12/10 04:37:36;;;;;;;11.30;2.80;;;9.70;99.90;;;9.58;100.00;99816.72;5243536;28;20067;-49
2023/12/10 04:40:10;;;;;;;6.90;1.77;;;9.70;99.90;;;9.58;100.00;99826.25;5262120;28;20060;-49
2023/12/10 04:42:43;;;;;;;13.30;1.85;;;9.70;99.90;;;9.57;100.00;99816.72;5256461;28;20411;-49
2023/12/10 04:45:17;;;;;;;6.25;1.80;;;9.70;99.90;;;9.55;100.00;99815.81;5243733;28;20131;-49
2023/12/10 04:47:50;;;;;;;8.20;1.40;;;9.70;99.90;;;9.55;100.00;99813.19;5243591;28;20059;-48
2023/12/10 04:50:23;;;;;;;6.72;2.47;;;9.70;99.90;;;9.55;100.00;99813.19;5245224;28;20066;-48
2023/12/10 04:52:55;;;;;;;8.70;1.75;;;9.70;99.90;;;9.52;100.00;99814.91;5260694;28;20056;-48
2023/12/10 04:55:28;;;;;;;12.32;2.05;;;9.60;99.90;;;9.56;100.00;99820.16;5249269;28;20167;-47
2023/12/10 04:58:00;;;;;;;7.72;2.03;;;9.60;99.90;;;9.58;100.00;99811.53;5269854;28;20147;-49
2023/12/10 05:00:34;;;;;;;16.33;1.75;;;9.60;99.90;;;9.60;100.00;99819.41;5252247;28;20414;-48
2023/12/10 05:03:07;;;;;;;12.50;2.58;;;9.70;99.90;;;9.62;100.00;99825.50;5253323;28;20056;-49
2023/12/10 05:05:39;;;;;;;8.65;1.60;;;9.70;99.90;;;9.63;100.00;99833.34;5257158;28;20677;-48
2023/12/10 05:08:12;;;;;;;9.38;1.63;;;9.70;99.90;;;9.67;100.00;99829.97;5247731;28;20409;-48
2023/12/10 05:11:21;;;;;;;12.50;1.80;;;9.70;99.90;;;9.68;100.00;99836.94;5255007;28;20074;-50
2023/12/10 05:21:05;;;;;;;13.52;2.15;;;9.80;99.90;;;9.79;100.00;99851.09;5241882;28;20044;-49
2023/12/10 05:23:49;;;;;;;10.90;2.33;;;9.80;99.90;;;9.84;100.00;99851.16;5265727;28;20044;-48
2023/12/10 05:27:11;;;;;;;12.35;2.28;;;9.90;99.90;;;9.87;100.00;99866.88;5270343;28;20052;-48
2023/12/10 05:29:56;;;;;;;10.48;2.10;;;9.90;99.90;;;9.88;100.00;99873.81;5263285;28;20101;-47
2023/12/10 05:32:37;;;;;;;15.93;2.22;;;9.90;99.90;;;9.88;100.00;99884.25;5264507;28;20461;-47
2023/12/10 05:35:34;;;;;;;11.15;1.67;;;10.00;99.90;;;9.93;100.00;99880.03;5277471;28;20044;-47
2023/12/10 05:38:15;;;;;;;11.73;2.20;;;10.00;99.90;;;10.01;100.00;99881.06;5269240;28;20048;-47
2023/12/10 05:41:14;;;;;;;16.58;1.95;;;10.00;99.90;;;10.01;100.00;99893.22;5245331;28;20047;-46
2023/12/10 05:44:09;;;;;;;9.43;1.70;;;10.10;99.90;;;10.01;100.00;99904.50;5261723;28;20089;-50
2023/12/10 05:47:06;;;;;;;8.95;1.42;;;10.10;99.90;;;10.02;100.00;99915.78;5268015;28;20494;-48
2023/12/10 05:49:58;;;;;;;11.38;1.88;;;10.10;99.90;;;10.01;100.00;99920.13;5249245;28;20551;-47
2023/12/10 05:52:36;;;;;;;11.68;1.90;;;10.10;99.90;;;10.07;100.00;99928.06;5264837;28;20422;-50
2023/12/10 05:55:31;;;;;;;8.98;1.45;;;10.10;99.90;;;10.14;100.00;99929.09;5252342;28;20462;-48
2023/12/10 05:58:36;;;;;;;6.28;1.85;;;10.20;99.90;;;10.15;100.00;99943.00;5267898;28;20056;-49
2023/12/10 06:01:25;;;;;;;7.82;1.85;;;10.20;99.90;;;10.14;100.00;99951.66;5265617;28;20051;-48
2023/12/10 06:04:16;;;;;;;13.70;2.08;;;10.20;99.90;;;10.11;100.00;99936.84;5265005;28;20070;-48
2023/12/10 06:06:48;;;;;;;12.68;2.10;;;10.20;99.90;;;10.12;100.00;99963.78;5266262;28;20085;-49
2023/12/10 06:09:22;;;;;;;14.57;1.88;;;10.20;99.90;;;10.15;100.00;99950.81;5256243;28;20051;-49
2023/12/10 06:11:55;;;;;;;10.60;2.17;;;10.20;99.90;;;10.14;100.00;99957.75;5255251;28;20048;-46
2023/12/10 06:14:28;;;;;;;11.35;1.50;;;10.20;99.90;;;10.11;100.00;99960.28;5266277;28;20137;-48
2023/12/10 06:17:00;;;;;;;10.52;1.60;;;10.20;99.90;;;10.14;100.00;99972.50;5253142;28;20052;-49
2023/12/10 06:19:33;;;;;;;13.65;1.75;;;10.20;99.90;;;10.13;100.00;99965.53;5262698;28;20058;-48
2023/12/10 06:22:06;;;;;;;11.40;2.30;;;10.20;99.90;;;10.15;100.00;99966.44;5248095;28;20105;-48
2023/12/10 06:24:40;;;;;;;10.93;1.77;;;10.20;99.90;;;10.15;100.00;99969.03;5267672;28;20111;-46
2023/12/10 06:27:12;;;;;;;8.50;1.83;;;10.20;99.90;;;10.15;100.00;99974.25;5257931;28;20049;-47
2023/12/10 06:29:45;;;;;;;8.20;1.70;;;10.20;99.90;;;10.19;100.00;99976.09;5262550;28;20040;-51
2023/12/10 06:32:17;;;;;;;11.68;2.05;;;10.20;99.90;;;10.14;100.00;99982.91;5261581;28;20040;-49
2023/12/10 06:34:50;;;;;;;9.15;1.63;;;10.20;99.90;;;10.15;100.00;99995.06;5262952;28;20085;-47
2023/12/10 06:37:23;;;;;;;7.68;1.50;;;10.20;99.90;;;10.16;100.00;99995.09;5266881;28;20041;-48
2023/12/10 06:39:57;;;;;;;12.02;1.80;;;10.20;99.90;;;10.18;100.00;99997.78;5264904;28;20048;-47
2023/12/10 06:42:30;;;;;;;5.93;1.42;;;10.20;99.90;;;10.19;100.00;100007.34;5266866;28;20071;-47
2023/12/10 06:45:03;;;;;;;12.32;1.70;;;10.20;99.90;;;10.21;100.00;100010.84;5260643;28;20108;-48
2023/12/10 06:47:35;;;;;;;8.80;1.65;;;10.20;99.90;;;10.19;100.00;100002.13;5247264;28;20070;-47
2023/12/10 06:50:09;;;;;;;7.75;1.58;;;10.20;99.90;;;10.21;100.00;100003.91;5249212;28;20052;-50
2023/12/10 06:52:42;;;;;;;7.15;1.52;;;10.30;99.90;;;10.24;100.00;100000.56;5246381;28;20062;-49
2023/12/10 06:55:16;;;;;;;8.88;1.73;;;10.30;99.90;;;10.24;100.00;100010.97;5249056;28;20070;-47
2023/12/10 06:57:49;;;;;;;7.90;1.40;;;10.30;99.90;;;10.22;100.00;100028.22;5250644;28;20048;-48
2023/12/10 07:00:21;;;;;;;6.25;1.85;;;10.30;99.90;;;10.21;100.00;100031.69;5253088;28;20048;-47
2023/12/10 07:02:54;;;;;;;6.90;1.20;;;10.30;99.90;;;10.21;100.00;100032.56;5263258;28;20406;-47
2023/12/10 07:05:26;;;;;;;12.07;1.55;;;10.30;99.90;;;10.21;100.00;100042.97;5263543;28;20048;-48
2023/12/10 07:07:59;;;;;;;12.45;1.80;;;10.30;99.90;;;10.24;100.00;100037.91;5246688;28;20066;-47
2023/12/10 07:10:33;;;;;;;7.38;1.80;;;10.30;99.90;;;10.27;100.00;100052.72;5252805;28;20072;-47
2023/12/10 07:13:05;;;;;;;9.15;2.13;;;10.30;99.90;;;10.24;100.00;100053.53;5247178;28;20052;-48
2023/12/10 07:15:38;;;;;;;12.40;2.67;;;10.30;99.90;;;10.27;100.00;100063.13;5249980;28;20135;-48
2023/12/10 07:18:10;;;;;;;7.18;1.33;;;10.30;99.90;;;10.24;100.00;100057.84;5238948;28;20079;-48
2023/12/10 07:20:43;;;;;;;9.43;1.75;;;10.30;99.90;;;10.23;100.00;100062.16;5247292;28;20134;-49
2023/12/10 07:23:15;;;;;;;10.30;1.65;;;10.30;99.90;;;10.23;100.00;100062.16;5249171;28;20085;-49
2023/12/10 07:25:49;;;;;;;9.45;1.60;;;10.30;99.90;;;10.23;100.00;100074.31;5250788;28;20510;-48
2023/12/10 07:28:23;;;;;;;8.27;1.35;;;10.30;99.90;;;10.23;100.00;100082.13;5251620;28;20059;-48
2023/12/10 07:30:55;;;;;;;13.80;1.60;;;10.30;99.90;;;10.25;100.00;100072.63;5247257;28;20048;-48
2023/12/10 07:33:28;;;;;;;7.53;1.73;;;10.30;99.90;;;10.25;100.00;100076.13;5252485;28;20135;-48
2023/12/10 07:36:00;;;;;;;10.68;1.45;;;10.30;99.90;;;10.24;100.00;100089.13;5264224;28;20044;-48
2023/12/10 07:38:33;;;;;;;6.65;1.35;;;10.30;99.90;;;10.26;100.00;100105.66;5251329;28;20054;-48
2023/12/10 07:41:07;;;;;;;13.82;1.52;;;10.30;99.90;;;10.31;100.00;100110.13;5258117;28;20477;-48
2023/12/10 07:43:40;;;;;;;10.48;1.75;;;10.40;99.90;;;10.31;100.00;100112.75;5246951;28;20046;-48
2023/12/10 07:46:12;;;;;;;7.88;1.17;;;10.40;99.90;;;10.33;100.00;100115.38;5249492;28;20046;-49
2023/12/10 07:48:45;;;;;;;8.90;1.67;;;10.40;99.90;;;10.30;100.00;100115.28;5244928;28;20047;-48
2023/12/10 07:51:18;;;;;;;8.88;1.58;;;10.40;99.90;;;10.29;100.00;100124.81;5253139;28;20052;-48
2023/12/10 07:53:50;;;;;;;11.98;2.05;;;10.40;99.90;;;10.29;100.00;100122.22;5247786;28;20597;-48
2023/12/10 07:56:26;;;;;;;8.13;1.88;;;10.40;99.90;;;10.31;100.00;100122.28;5247866;28;20111;-48
2023/12/10 07:58:58;;;;;;;6.72;1.60;;;10.30;99.90;;;10.29;100.00;100116.13;5244467;28;20142;-47
2023/12/10 08:01:31;;;;;;;11.30;2.00;;;10.40;99.90;;;10.31;100.00;100124.88;5246376;28;20048;-48
2023/12/10 08:04:06;;;;;;;8.43;1.60;;;10.40;99.90;;;10.31;100.00;100135.31;5262961;28;20055;-50
2023/12/10 08:06:39;;;;;;;10.70;3.15;;;10.40;99.90;;;10.31;100.00;100130.97;5249304;28;20044;-48
2023/12/10 08:09:11;;;;;;;7.10;1.50;;;10.40;99.90;;;10.30;100.00;100133.53;5238626;28;20033;-47
2023/12/10 08:11:45;;;;;;;10.52;1.70;;;10.40;99.90;;;10.27;100.00;100154.28;5242707;28;20096;-49
2023/12/10 08:14:17;;;;;;;6.65;1.67;;;10.30;99.90;;;10.28;100.00;100172.56;5247670;28;20040;-48
2023/12/10 08:16:50;;;;;;;7.07;1.50;;;10.40;99.90;;;10.32;100.00;100155.31;5239649;28;20418;-48
2023/12/10 08:19:22;;;;;;;10.45;1.95;;;10.40;99.90;;;10.28;100.00;100166.47;5247863;28;20048;-48
2023/12/10 08:21:55;;;;;;;5.38;1.48;;;10.30;99.90;;;10.26;100.00;100171.66;5257220;28;20044;-48
2023/12/10 08:24:28;;;;;;;12.32;2.22;;;10.30;99.90;;;10.24;100.00;100168.13;5249849;28;20044;-48
2023/12/10 08:27:02;;;;;;;9.93;1.70;;;10.30;99.90;;;10.54;100.00;100175.84;5258989;28;20422;-49
2023/12/10 08:29:34;;;;;;;8.63;1.67;;;10.50;99.90;;;10.95;100.00;100175.94;5244629;28;20138;-48
2023/12/10 08:32:10;;;;;;;6.72;1.40;;;10.90;99.90;;;11.29;100.00;100184.56;5252337;28;20044;-49
2023/12/10 08:34:42;;;;;;;11.80;1.60;;;11.20;99.90;;;11.52;100.00;100192.88;5248722;28;20503;-46
2023/12/10 08:37:15;;;;;;;9.55;1.77;;;11.50;99.90;;;11.53;100.00;100177.25;5245862;28;20410;-48
2023/12/10 08:39:50;;;;;;;13.88;2.10;;;11.60;99.90;;;11.34;100.00;100189.00;5244466;28;20059;-48
2023/12/10 08:42:24;;;;;;;;;;;11.50;99.90;;;11.15;100.00;100176.44;5246108;28;20514;-48
2023/12/10 08:44:56;;;;;;;14.65;2.30;;;11.30;99.90;;;10.96;100.00;100182.94;5263232;28;19920;-48
2023/12/10 08:47:29;;;;;;;12.73;2.00;;;11.10;99.90;;;10.86;100.00;100201.81;5249513;28;20048;-48
2023/12/10 08:50:02;;;;;;;11.82;2.17;;;11.00;99.90;;;10.75;100.00;100203.25;5256946;28;20135;-48
2023/12/10 08:52:35;;;;;;;9.73;2.00;;;;;;;10.84;100.00;100213.94;5248188;28;20040;-48
2023/12/10 08:55:09;;;;;;;13.45;2.00;;;;;;;10.88;100.00;100210.53;5247903;28;20148;-48
2023/12/10 08:57:43;;;;;;;8.63;2.08;;;;;;;10.80;100.00;100217.31;5258525;28;20040;-48
2023/12/10 09:00:17;;;;;;;12.48;1.83;;;;;;;10.73;100.00;100225.81;5254291;28;20525;-48
2023/12/10 09:02:50;;;;;;;9.90;2.22;;;;;;;10.70;100.00;100230.97;5247664;28;20062;-48
2023/12/10 09:05:22;;;;;;;13.68;1.88;;;;;;;10.66;100.00;100224.78;5250092;28;20105;-49
2023/12/10 09:07:55;;;;;;;9.48;1.55;;;;;;;10.62;100.00;100242.91;5245262;28;20585;-50
2023/12/10 09:10:28;;;;;;;11.52;1.83;;;;;;;10.62;100.00;100235.97;5241534;28;20131;-49
2023/12/10 09:13:02;;;;;;;9.93;1.95;;;;;;;10.65;100.00;100243.00;5231747;28;20284;-52
2023/12/10 09:15:35;;;;;;;7.55;1.40;;;;;;;10.72;100.00;100239.69;5246525;28;20449;-48
2023/12/10 09:18:08;;;;;;;6.47;1.98;;;;;;;10.77;100.00;100235.50;5251554;28;20040;-48
2023/12/10 09:20:41;;;;;;;10.23;1.67;;;;;;;10.82;100.00;100252.09;5246529;28;20522;-48
2023/12/10 09:23:13;;;;;;;13.50;3.03;;;;;;;10.90;100.00;100240.16;5246528;28;20402;-48
2023/12/10 09:25:46;;;;;;;10.75;2.97;;;;;;;10.96;100.00;100240.31;5249655;28;20460;-48
2023/12/10 09:28:20;;;;;;;8.88;1.55;;;;;;;11.02;100.00;100245.69;5249199;28;20044;-48
2023/12/10 09:30:53;;;;;;;7.47;1.48;;;;;;;11.01;100.00;100243.00;5248703;28;20074;-50
2023/12/10 09:33:26;;;;;;;12.32;1.73;;;;;;;11.29;100.00;100270.66;5246076;28;20055;-49
2023/12/10 09:35:59;;;;;;;8.23;1.40;;;;;;;11.63;100.00;100256.66;5253051;28;20105;-54
2023/12/10 09:38:32;;;;;;;9.88;2.28;;;;;;;11.70;100.00;100250.72;5250177;28;20056;-49
2023/12/10 09:41:06;;;;;;;7.55;1.35;;;;;;;11.67;100.00;100264.59;5245539;28;20071;-50
2023/12/10 09:43:40;;;;;;;11.23;1.73;;;;;;;11.63;100.00;100247.09;5250857;28;20515;-48
2023/12/10 09:46:13;;;;;;;11.75;1.75;;;;;;;11.53;100.00;100250.31;5256932;28;20490;-48
2023/12/10 09:48:47;;;;;;;8.27;1.40;;;;;;;11.43;100.00;100258.81;5251944;28;20663;-48
2023/12/10 09:51:20;;;;;;;7.75;1.80;;;;;;;11.35;100.00;100255.16;5250751;28;20040;-48
2023/12/10 09:53:53;;;;;;;6.18;1.55;;;;;;;11.28;100.00;100258.44;5251524;28;20062;-49
2023/12/10 09:56:25;;;;;;;8.02;1.48;;;;;;;11.28;100.00;100255.81;5258938;28;20045;-49
2023/12/10 09:59:00;;;;;;;5.38;1.30;;;;;;;11.34;100.00;100269.03;5241213;28;20079;-49
2023/12/10 10:01:32;;;;;;;6.93;1.33;;;;;;;11.63;100.00;100273.19;5248977;28;20460;-50
2023/12/10 10:04:05;;;;;;;6.57;1.83;;;;;;;11.72;100.00;100255.94;5244091;28;20047;-50
2023/12/10 10:06:38;;;;;;;9.88;1.92;;;11.70;99.90;;;11.71;100.00;100265.50;5247230;28;20032;-49
2023/12/10 10:09:11;;;;;;;9.85;1.58;;;11.70;99.90;;;11.67;100.00;100259.38;5261330;28;20068;-48
2023/12/10 10:11:48;;;;;;;12.63;1.95;;;11.70;99.90;;;11.64;100.00;100261.00;5227663;28;20515;-50
2023/12/10 10:14:26;;;;;;;9.27;2.63;;;11.60;99.90;;;11.67;100.00;100271.50;5235527;28;20044;-50
2023/12/10 10:16:58;;;;;;;11.93;2.00;;;11.70;99.90;;;11.71;100.00;100275.09;5228820;28;20045;-49
2023/12/10 10:19:31;;;;;;;7.85;1.70;;;11.70;99.90;;;11.74;100.00;100275.16;5236061;28;20098;-50
2023/12/10 10:22:08;;;;;;;10.70;2.15;;;11.70;99.90;;;11.78;100.00;100272.63;5242269;28;20052;-48
2023/12/10 10:24:40;;;;;;;11.50;1.90;;;11.70;99.90;;;11.82;100.00;100266.69;5243610;28;20180;-50
2023/12/10 10:27:14;;;;;;;9.30;1.88;;;11.70;99.90;;;11.84;100.00;100261.47;5227183;28;20036;-50
2023/12/10 10:29:53;;;;;;;7.78;1.50;;;11.70;99.90;;;11.82;100.00;100255.34;5235079;28;20083;-50
2023/12/10 10:32:30;;;;;;;7.80;1.30;;;11.80;99.90;;;11.86;100.00;100268.47;5231423;28;20069;-50
2023/12/10 10:35:06;;;;;;;4.60;1.60;;;11.80;99.90;;;11.90;100.00;100266.81;5230713;28;20044;-49
2023/12/10 10:37:39;;;;;;;4.53;1.13;;;11.80;99.90;;;11.94;100.00;100263.44;5225381;28;20068;-49
2023/12/10 10:40:12;;;;;;;7.05;1.55;;;11.90;99.90;;;12.00;100.00;100258.34;5222554;28;20076;-49
2023/12/10 10:42:46;;;;;;;7.38;1.42;;;11.90;99.90;;;12.09;100.00;100258.53;5234016;28;20054;-49
2023/12/10 10:45:20;;;;;;;7.85;1.15;;;11.90;99.90;;;12.15;100.00;100257.78;5237695;28;20044;-50
2023/12/10 10:47:53;;;;;;;8.73;1.35;;;12.10;99.90;;;12.21;100.00;100256.16;5232100;28;20043;-49
2023/12/10 10:50:26;;;;;;;11.35;1.52;;;12.10;99.90;;;12.44;100.00;100253.97;5233201;28;20233;-50
2023/12/10 10:53:00;;;;;;;7.50;1.20;;;12.30;99.90;;;12.39;100.00;100252.16;5227747;28;20056;-49
2023/12/10 10:55:34;;;;;;;9.25;2.10;;;12.30;99.90;;;12.33;100.00;100242.44;5232369;28;20140;-49